Аэропорт: Атырау. Атырау

ICAO: UATG

METAR:
2021-07-28 14:00:00
UATG 281400Z 36005G10MPS 320V020 9999 SCT033CB 32/05 Q1010 R32/CLRD70 NOSIG RMK QFE759/1013
METAR:
2021-07-28 11:00:00
TAF UATG 281100Z 2812/2912 35011MPS 9999 SCT033CB TX33/2910Z TN19/2901Z BECMG 2819/2821 02006MPS